Time;durP1;ratioP1;P1;durP2;ratioP2;P2;SDS_P1;SDS_P2;PMS_P1;PMS_P2;Temp;Humidity;BMP_temperature;BMP_pressure;BME280_temperature;BME280_humidity;BME280_pressure;Samples;Min_cycle;Max_cycle;Signal;HPM_P1;HPM_P2
2022/12/19 00:00:46;;;;;;;92.95;30.80;;;;;;;-7.93;67.33;100470.38;5087178;28;20105;-66
2022/12/19 00:03:11;;;;;;;90.53;29.95;;;;;;;-7.93;67.46;100459.72;5087060;28;20063;-67
2022/12/19 00:05:38;;;;;;;85.45;29.70;;;;;;;-7.97;67.39;100453.81;5088434;28;20112;-68
2022/12/19 00:08:05;;;;;;;86.63;29.58;;;;;;;-7.95;67.65;100462.53;5086805;28;20031;-68
2022/12/19 00:10:30;;;;;;;79.85;30.02;;;;;;;-7.94;67.30;100458.03;5086363;28;20495;-66
2022/12/19 00:12:55;;;;;;;79.50;29.48;;;;;;;-7.94;67.44;100460.69;5086746;28;20028;-66
2022/12/19 00:15:21;;;;;;;82.40;29.98;;;;;;;-7.93;67.41;100457.06;5088845;28;20503;-70
2022/12/19 00:17:46;;;;;;;83.20;29.00;;;;;;;-7.94;67.11;100468.69;5088508;28;20066;-68
2022/12/19 00:20:11;;;;;;;79.13;27.73;;;;;;;-7.97;67.49;100464.47;5087148;28;20036;-67
2022/12/19 00:22:37;;;;;;;87.75;29.90;;;;;;;-7.99;67.82;100465.59;5086412;28;20620;-66
2022/12/19 00:25:02;;;;;;;82.53;29.88;;;;;;;-8.02;67.03;100458.66;5069353;28;20041;-67
2022/12/19 00:27:28;;;;;;;73.47;27.27;;;;;;;-8.02;67.44;100464.00;5068979;28;20023;-66
2022/12/19 00:29:53;;;;;;;71.13;27.83;;;;;;;-8.00;67.54;100459.41;5069965;28;20035;-67
2022/12/19 00:32:18;;;;;;;71.18;28.20;;;;;;;-7.98;67.61;100459.28;5086590;28;20032;-67
2022/12/19 00:34:44;;;;;;;80.10;27.85;;;;;;;-8.00;67.59;100462.06;5087774;28;20057;-68
2022/12/19 00:37:10;;;;;;;74.60;28.25;;;;;;;-8.02;67.39;100461.34;5087552;28;20411;-66
2022/12/19 00:39:36;;;;;;;80.53;27.38;;;;;;;-8.06;67.05;100454.56;5086527;28;20496;-68
2022/12/19 00:42:01;;;;;;;74.57;28.75;;;;;;;-8.05;67.31;100452.75;5088288;28;20031;-68
2022/12/19 00:44:27;;;;;;;65.93;25.42;;;;;;;-8.07;67.21;100445.75;5088204;28;20468;-68
2022/12/19 00:46:52;;;;;;;70.68;26.92;;;;;;;-8.07;67.60;100444.88;5088662;28;20054;-67
2022/12/19 00:49:17;;;;;;;74.78;26.55;;;;;;;-8.08;66.95;100440.53;5088380;28;20476;-67
2022/12/19 00:51:43;;;;;;;74.82;26.70;;;;;;;-8.12;67.11;100439.09;5086735;28;20105;-67
2022/12/19 00:54:09;;;;;;;68.63;27.08;;;;;;;-8.11;67.42;100446.09;5086062;28;20024;-68
2022/12/19 00:56:35;;;;;;;74.00;28.80;;;;;;;-8.11;67.24;100438.13;5087479;28;20516;-67
2022/12/19 00:59:01;;;;;;;67.13;26.92;;;;;;;-8.14;66.97;100428.56;5086831;28;20027;-68
2022/12/19 01:01:30;;;;;;;75.30;28.20;;;;;;;-8.19;66.98;100425.44;5086998;28;20024;-67
2022/12/19 01:04:00;;;;;;;73.07;27.70;;;;;;;-8.23;66.51;100421.34;5086381;28;20465;-69
2022/12/19 01:06:26;;;;;;;71.63;24.58;;;;;;;-8.25;66.98;100423.28;5086248;28;20020;-68
2022/12/19 01:08:52;;;;;;;67.47;25.38;;;;;;;-8.27;67.15;100425.22;5088002;28;20078;-68
2022/12/19 01:12:44;;;;;;;67.00;25.13;;;;;;;-8.29;66.57;100419.19;5088226;28;20028;-66
2022/12/19 01:14:03;;;;;;;65.93;24.58;;;;;;;-8.33;66.70;100413.28;5078672;28;20436;-66
2022/12/19 01:16:28;;;;;;;69.72;25.48;;;;;;;-8.36;66.45;100416.19;5065941;28;20051;-67
2022/12/19 01:18:53;;;;;;;63.58;25.17;;;;;;;-8.40;66.39;100414.75;5086800;28;20024;-67
2022/12/19 01:21:19;;;;;;;62.03;24.08;;;;;;;-8.41;66.91;100413.91;5055761;28;20045;-66
2022/12/19 01:23:44;;;;;;;64.50;23.42;;;;;;;-8.41;67.08;100413.91;5046170;28;20036;-68
2022/12/19 01:26:09;;;;;;;74.82;26.35;;;;;;;-8.42;66.94;100406.03;5047059;28;20741;-67
2022/12/19 01:28:35;;;;;;;68.32;25.02;;;;;;;-8.45;66.57;100412.47;5047102;28;20052;-67
2022/12/19 01:31:04;;;;;;;66.68;24.90;;;;;;;-8.46;66.53;100408.09;5045185;28;20115;-67
2022/12/19 01:33:29;;;;;;;67.97;25.77;;;;;;;-8.45;66.71;100409.78;5044500;28;20029;-67
2022/12/19 01:35:55;;;;;;;68.53;26.38;;;;;;;-8.44;67.05;100403.50;5048000;28;20037;-66
2022/12/19 01:38:20;;;;;;;68.93;25.75;;;;;;;-8.43;66.60;100401.69;5052455;28;20033;-66
2022/12/19 01:40:54;;;;;;;74.85;26.75;;;;;;;-8.43;66.71;100405.19;5051983;28;20536;-67
2022/12/19 01:43:21;;;;;;;84.97;26.67;;;;;;;-8.42;66.37;100396.25;5046761;28;20036;-67
2022/12/19 01:45:53;;;;;;;83.38;29.17;;;;;;;-8.46;66.92;100388.63;5052350;28;20029;-69
2022/12/19 01:48:27;;;;;;;81.28;27.52;;;;;;;-8.48;66.70;100395.91;5051026;28;20032;-70
2022/12/19 01:51:12;;;;;;;76.80;27.42;;;;;;;-8.48;66.90;100393.25;5049517;28;20490;-67
2022/12/19 01:53:47;;;;;;;71.53;27.55;;;;;;;-8.49;66.82;100384.44;5048284;28;20057;-69
2022/12/19 01:56:13;;;;;;;70.53;27.02;;;;;;;-8.48;66.56;100374.63;5048696;28;20115;-66
2022/12/19 01:58:42;;;;;;;82.10;30.40;;;;;;;-8.48;66.92;100371.97;5051583;28;20135;-65
2022/12/19 02:01:07;;;;;;;80.15;30.33;;;;;;;-8.48;66.45;100370.13;5050060;28;20063;-63
2022/12/19 02:03:35;;;;;;;90.93;30.95;;;;;;;-8.49;66.47;100376.44;5050286;28;20065;-65
2022/12/19 02:06:03;;;;;;;84.82;29.15;;;;;;;-8.53;66.49;100367.84;5050610;28;20028;-66
2022/12/19 02:08:29;;;;;;;84.07;28.50;;;;;;;-8.59;66.44;100375.50;5050318;28;20025;-66
2022/12/19 02:10:55;;;;;;;85.28;29.15;;;;;;;-8.61;66.27;100370.31;5047730;28;20017;-65
2022/12/19 02:13:22;;;;;;;88.32;31.42;;;;;;;-8.60;66.54;100365.84;5045158;28;20033;-64
2022/12/19 02:16:20;;;;;;;81.32;26.88;;;;;;;-8.61;66.60;100366.81;5049244;28;20021;-66
2022/12/19 02:19:17;;;;;;;90.38;30.63;;;;;;;-8.65;67.02;100358.25;5013004;28;20103;-67
2022/12/19 02:22:02;;;;;;;89.38;29.98;;;;;;;-8.60;66.54;100365.84;5074573;28;20051;-65
2022/12/19 02:25:08;;;;;;;90.93;29.42;;;;;;;-8.58;66.83;100366.56;5068750;28;20476;-67
2022/12/19 02:28:02;;;;;;;81.68;28.42;;;;;;;-8.56;66.89;100353.97;5087072;28;20031;-64
2022/12/19 02:30:47;;;;;;;76.68;29.25;;;;;;;-8.49;66.88;100343.66;5086822;28;20020;-65
2022/12/19 02:33:20;;;;;;;69.22;27.00;;;;;;;-8.49;66.77;100356.97;5085740;28;20034;-65
2022/12/19 02:35:53;;;;;;;79.40;28.33;;;;;;;-8.49;66.40;100351.66;5085666;28;20032;-64
2022/12/19 02:39:04;;;;;;;75.18;28.15;;;;;;;-8.61;66.51;100354.34;5088236;28;20554;-64
2022/12/19 02:41:57;;;;;;;67.75;25.23;;;;;;;-8.61;66.41;100349.03;5077738;28;20369;-64
2022/12/19 02:44:36;;;;;;;79.70;27.85;;;;;;;-8.62;66.78;100347.34;5087878;28;20605;-64
2022/12/19 02:47:04;;;;;;;76.25;28.45;;;;;;;-8.65;66.59;100344.06;5090540;28;20121;-64
2022/12/19 02:49:33;;;;;;;77.93;29.33;;;;;;;-8.67;66.24;100341.56;5090769;28;20053;-64
2022/12/19 02:52:18;;;;;;;74.63;27.40;;;;;;;-8.68;66.56;100342.53;5091236;28;20081;-64
2022/12/19 02:54:46;;;;;;;75.43;27.30;;;;;;;-8.68;66.85;100338.03;5072373;28;20427;-64
2022/12/19 02:57:22;;;;;;;77.78;29.13;;;;;;;-8.66;66.38;100340.59;5069887;28;20020;-64
2022/12/19 03:00:12;;;;;;;74.32;28.45;;;;;;;-8.69;66.22;100340.84;5091297;28;20063;-64
2022/12/19 03:03:02;;;;;;;78.53;30.38;;;;;;;-8.74;66.45;100330.53;5090379;28;20079;-64
2022/12/19 03:05:45;;;;;;;;;;;;;;;-8.77;66.12;100330.81;5091622;28;20047;-64
2022/12/19 03:08:23;;;;;;;77.18;28.40;;;;;;;-8.85;66.22;100331.44;5091971;28;20306;-64
2022/12/19 03:10:56;;;;;;;79.70;28.83;;;;;;;-8.87;66.34;100324.56;5091242;28;20369;-64
2022/12/19 03:13:43;;;;;;;73.30;28.58;;;;;;;-8.97;66.39;100321.81;5086418;28;20023;-64
2022/12/19 03:16:10;;;;;;;69.82;25.42;;;;;;;-8.98;66.72;100318.28;5090625;28;20399;-64
2022/12/19 03:18:37;;;;;;;69.65;26.25;;;;;;;-8.99;66.42;100323.75;5091386;28;20452;-64
2022/12/19 03:21:27;;;;;;;76.95;26.45;;;;;;;-8.99;66.37;100321.91;5091202;28;20084;-65
2022/12/19 03:23:54;;;;;;;68.90;23.63;;;;;;;-8.93;66.46;100328.53;5087975;28;20036;-64
2022/12/19 03:26:23;;;;;;;69.32;25.05;;;;;;;-8.90;66.24;100317.66;5091172;28;20034;-64
2022/12/19 03:29:01;;;;;;;67.80;26.35;;;;;;;-8.97;66.04;100313.81;5090832;28;20460;-65
2022/12/19 03:31:30;;;;;;;67.70;25.27;;;;;;;-9.01;66.29;100310.56;5073081;28;20392;-64
2022/12/19 03:34:01;;;;;;;70.30;26.17;;;;;;;-8.98;66.47;100309.47;5088283;28;20575;-65
2022/12/19 03:36:32;;;;;;;65.63;25.25;;;;;;;-8.98;66.26;100312.97;5090375;28;20032;-64
2022/12/19 03:39:00;;;;;;;68.53;24.33;;;;;;;-8.94;66.57;100310.06;5090099;28;20016;-64
2022/12/19 03:44:14;;;;;;;71.45;25.38;;;;;;;-9.00;66.21;100309.59;5089229;28;20038;-64
2022/12/19 03:46:44;;;;;;;68.82;24.58;;;;;;;-9.02;65.97;100319.50;5090504;28;20076;-64
2022/12/19 03:49:11;;;;;;;69.25;24.25;;;;;;;-9.01;66.23;100315.88;5091012;28;20020;-65
2022/12/19 03:51:48;;;;;;;70.05;25.23;;;;;;;-9.00;66.58;100304.25;5089766;28;20023;-64
2022/12/19 03:54:26;;;;;;;69.30;25.67;;;;;;;-8.95;66.13;100314.50;5086539;28;20035;-64
2022/12/19 03:57:14;;;;;;;69.53;27.02;;;;;;;-8.99;66.22;100313.09;5089572;28;20026;-64
2022/12/19 03:59:44;;;;;;;76.22;28.30;;;;;;;-9.03;66.45;100316.97;5088986;28;20023;-64
2022/12/19 04:02:13;;;;;;;71.63;26.00;;;;;;;-9.02;66.24;100306.19;5088842;28;20020;-64
2022/12/19 04:04:42;;;;;;;75.53;27.90;;;;;;;-9.01;66.30;100299.09;5089288;28;20115;-64
2022/12/19 04:07:10;;;;;;;70.70;25.55;;;;;;;-9.02;66.24;100302.72;5089491;28;20012;-64
2022/12/19 04:09:38;;;;;;;75.03;28.20;;;;;;;-9.02;66.15;100295.56;5089253;28;20020;-63
2022/12/19 04:12:09;;;;;;;79.85;27.08;;;;;;;-9.03;66.04;100301.03;5071722;28;20411;-64
2022/12/19 04:14:37;;;;;;;70.22;26.02;;;;;;;-9.05;66.12;100290.50;5088775;28;20095;-64
2022/12/19 04:17:14;;;;;;;85.60;28.73;;;;;;;-9.10;66.18;100279.38;5089644;28;20411;-64
2022/12/19 04:19:50;;;;;;;73.18;28.40;;;;;;;-9.16;65.92;100279.88;5089172;28;20063;-64
2022/12/19 04:22:24;;;;;;;87.13;29.50;;;;;;;-9.23;65.74;100278.69;5087597;28;20048;-64
2022/12/19 04:24:52;;;;;;;96.30;32.92;;;;;;;-9.30;65.99;100278.31;5089250;28;20058;-64
2022/12/19 04:27:20;;;;;;;89.90;31.77;;;;;;;-9.34;66.11;100275.09;5089584;28;20081;-64
2022/12/19 04:29:47;;;;;;;98.10;30.60;;;;;;;-9.33;65.85;100278.56;5088776;28;20039;-64
2022/12/19 04:32:13;;;;;;;90.28;30.35;;;;;;;-9.36;65.81;100279.66;5084965;28;20042;-64
2022/12/19 04:34:39;;;;;;;81.95;28.65;;;;;;;-9.37;66.04;100277.97;5089095;28;20071;-64
2022/12/19 04:37:05;;;;;;;79.20;27.30;;;;;;;-9.35;66.21;100273.38;5089004;28;20115;-64
2022/12/19 04:39:32;;;;;;;84.75;28.05;;;;;;;-9.39;66.21;100266.63;5089163;28;20024;-63
2022/12/19 04:41:57;;;;;;;76.57;28.88;;;;;;;-9.42;65.98;100275.69;5089385;28;20473;-65
2022/12/19 04:44:23;;;;;;;82.85;28.65;;;;;;;-9.44;65.75;100274.13;5087898;28;20111;-64
2022/12/19 04:46:48;;;;;;;88.85;28.67;;;;;;;-9.41;66.38;100263.25;5088668;28;20051;-63
2022/12/19 04:49:14;;;;;;;130.90;34.40;;;;;;;-9.46;66.02;100268.06;5088712;28;20081;-64
2022/12/19 04:51:39;;;;;;;110.05;31.83;;;;;;;-9.51;65.71;100279.09;5086280;28;20035;-64
2022/12/19 04:54:04;;;;;;;97.47;30.90;;;;;;;-9.50;66.00;100274.59;5087556;28;20032;-64
2022/12/19 04:56:30;;;;;;;82.10;27.95;;;;;;;-9.51;65.89;100276.44;5089091;28;20027;-64
2022/12/19 04:58:59;;;;;;;85.10;26.73;;;;;;;-9.47;66.44;100266.38;5089207;28;20028;-64
2022/12/19 05:01:25;;;;;;;86.47;27.85;;;;;;;-9.48;65.79;100259.38;5088963;28;20112;-64
2022/12/19 05:03:51;;;;;;;88.38;27.60;;;;;;;-9.51;65.77;100264.94;5088058;28;20688;-64
2022/12/19 05:06:16;;;;;;;84.55;27.95;;;;;;;-9.50;65.97;100267.50;5088916;28;20456;-64
2022/12/19 05:08:43;;;;;;;80.47;27.15;;;;;;;-9.50;66.22;100269.28;5089441;28;20028;-64
2022/12/19 05:11:14;;;;;;;74.70;25.70;;;;;;;-9.50;66.03;100262.19;5088858;28;20039;-64
2022/12/19 05:13:39;;;;;;;72.32;25.92;;;;;;;-9.46;65.96;100258.31;5087225;28;20027;-64
2022/12/19 05:16:07;;;;;;;73.57;26.42;;;;;;;-9.44;66.31;100263.50;5089161;28;20055;-65
2022/12/19 05:18:34;;;;;;;70.53;25.35;;;;;;;-9.46;65.94;100262.75;5089290;28;20031;-65
2022/12/19 05:20:59;;;;;;;76.78;26.60;;;;;;;-9.48;66.12;100273.53;5088284;28;20044;-64
2022/12/19 05:23:25;;;;;;;67.93;25.65;;;;;;;-9.49;66.06;100274.50;5088076;28;20499;-65
2022/12/19 05:25:51;;;;;;;73.97;27.90;;;;;;;-9.57;65.46;100275.06;5088609;28;20056;-65
2022/12/19 05:28:18;;;;;;;70.53;24.42;;;;;;;-9.63;66.11;100277.38;5070869;28;20041;-65
2022/12/19 05:30:43;;;;;;;76.78;25.65;;;;;;;-9.63;65.87;100275.59;5088423;28;20740;-65
2022/12/19 05:33:09;;;;;;;77.47;26.60;;;;;;;-9.63;66.19;100267.63;5085482;28;20072;-65
2022/12/19 05:35:36;;;;;;;75.25;27.98;;;;;;;-9.63;66.14;100257.00;5089206;28;20063;-65
2022/12/19 05:38:01;;;;;;;64.40;24.17;;;;;;;-9.65;65.61;100266.03;5089040;28;20388;-65
2022/12/19 05:40:27;;;;;;;71.80;27.67;;;;;;;-9.63;66.02;100278.25;5088642;28;20036;-64
2022/12/19 05:42:53;;;;;;;76.90;26.50;;;;;;;-9.64;66.08;100275.69;5087710;28;20082;-65
2022/12/19 05:45:18;;;;;;;89.53;27.05;;;;;;;-9.67;65.91;100271.47;5089106;28;20054;-65
2022/12/19 05:47:45;;;;;;;85.68;30.83;;;;;;;-9.75;65.79;100269.41;5088654;28;20123;-65
2022/12/19 05:50:12;;;;;;;83.68;28.10;;;;;;;-9.78;65.58;100264.34;5088882;28;20032;-65
2022/12/19 05:52:38;;;;;;;94.97;30.85;;;;;;;-9.79;65.58;100267.97;5087196;28;20118;-66
2022/12/19 05:55:04;;;;;;;93.65;30.30;;;;;;;-9.87;65.95;100260.59;5088403;28;20119;-65
2022/12/19 05:57:30;;;;;;;97.38;31.58;;;;;;;-9.85;65.71;100259.63;5088598;28;20563;-65
2022/12/19 05:59:55;;;;;;;97.47;29.52;;;;;;;-9.85;65.63;100256.97;5088386;28;20152;-65
2022/12/19 06:02:20;;;;;;;95.00;30.83;;;;;;;-9.85;65.86;100255.19;5087378;28;20472;-65
2022/12/19 06:04:46;;;;;;;104.68;32.17;;;;;;;-9.80;66.05;100249.50;5088062;28;20051;-65
2022/12/19 06:07:11;;;;;;;104.45;32.70;;;;;;;-9.79;66.04;100253.84;5088500;28;20024;-65
2022/12/19 06:09:37;;;;;;;107.25;35.17;;;;;;;-9.78;65.75;100248.41;5088119;28;20116;-65
2022/12/19 06:12:02;;;;;;;100.25;32.47;;;;;;;-9.79;65.80;100248.53;5088649;28;20020;-66
2022/12/19 06:14:28;;;;;;;88.15;30.10;;;;;;;-9.79;65.60;100252.06;5086905;28;20028;-64
2022/12/19 06:16:53;;;;;;;76.35;26.50;;;;;;;-9.78;65.61;100259.03;5088280;28;20548;-65
2022/12/19 06:19:18;;;;;;;67.07;24.58;;;;;;;-9.76;65.64;100261.56;5070649;28;20031;-64
2022/12/19 06:21:44;;;;;;;74.28;25.70;;;;;;;-9.74;65.68;100262.31;5088192;28;20089;-65
2022/12/19 06:24:09;;;;;;;79.10;27.92;;;;;;;-9.76;65.69;100262.41;5090567;28;20028;-65
2022/12/19 06:26:35;;;;;;;78.55;27.85;;;;;;;-9.78;65.34;100252.88;5091638;28;20036;-64
2022/12/19 06:29:00;;;;;;;78.60;27.10;;;;;;;-9.78;65.27;100256.38;5073923;28;20028;-64
2022/12/19 06:31:26;;;;;;;87.38;28.27;;;;;;;-9.76;65.46;100246.47;5091687;28;20064;-65
2022/12/19 06:33:51;;;;;;;84.55;29.35;;;;;;;-9.71;65.69;100248.78;5072725;28;20028;-65
2022/12/19 06:36:25;;;;;;;82.18;27.60;;;;;;;-9.69;65.70;100246.84;5091905;28;20146;-65
2022/12/19 06:38:52;;;;;;;82.80;27.15;;;;;;;-9.64;65.83;100235.84;5088276;28;20024;-65
2022/12/19 06:44:05;;;;;;;107.57;45.85;;;;;;;-9.61;65.49;100236.47;5087277;28;20177;-65
2022/12/19 06:46:31;;;;;;;88.60;35.75;;;;;;;-9.59;65.43;100242.50;5092010;28;20062;-65
2022/12/19 06:48:57;;;;;;;79.90;29.98;;;;;;;-9.61;65.66;100243.59;5091601;28;20059;-66
2022/12/19 06:51:22;;;;;;;76.93;32.03;;;;;;;-9.62;65.75;100233.91;5091068;28;20051;-65
2022/12/19 06:53:48;;;;;;;81.22;34.53;;;;;;;-9.64;65.63;100231.41;5090558;28;20049;-65
2022/12/19 06:56:15;;;;;;;104.05;39.38;;;;;;;-9.63;65.51;100229.56;5091608;28;20039;-65
2022/12/19 06:58:41;;;;;;;302.15;77.15;;;;;;;-9.62;65.69;100228.59;5091336;28;20051;-64
2022/12/19 07:01:06;;;;;;;311.08;73.25;;;;;;;-9.63;65.12;100237.53;5091081;28;20064;-65
2022/12/19 07:03:39;;;;;;;236.70;65.30;;;;;;;-9.65;65.07;100242.13;5090162;28;20532;-65
2022/12/19 07:06:05;;;;;;;176.57;54.08;;;;;;;-9.70;65.08;100244.31;5091504;28;20016;-64
2022/12/19 07:08:31;;;;;;;150.63;47.70;;;;;;;-9.75;65.18;100242.84;5091184;28;20032;-65
2022/12/19 07:10:57;;;;;;;124.20;43.78;;;;;;;-9.77;65.08;100252.75;5090412;28;20473;-65
2022/12/19 07:13:23;;;;;;;121.78;40.53;;;;;;;-9.76;65.32;100240.31;5090091;28;20028;-66
2022/12/19 07:15:51;;;;;;;122.25;41.08;;;;;;;-9.79;65.32;100236.13;5091330;28;20032;-66
2022/12/19 07:18:17;;;;;;;129.25;41.97;;;;;;;-9.80;65.19;100254.81;5072368;28;20610;-65
2022/12/19 07:20:42;;;;;;;121.22;39.08;;;;;;;-9.84;64.81;100246.25;5090713;28;20128;-65
2022/12/19 07:23:10;;;;;;;110.90;38.55;;;;;;;-9.87;65.08;100254.44;5089855;28;20024;-65
2022/12/19 07:25:37;;;;;;;103.50;38.50;;;;;;;-9.88;65.04;100256.25;5091135;28;20035;-65
2022/12/19 07:28:03;;;;;;;101.45;36.63;;;;;;;-9.87;65.27;100257.94;5091056;28;20484;-65
2022/12/19 07:30:28;;;;;;;115.47;40.03;;;;;;;-9.83;65.14;100257.69;5072216;28;20031;-65
2022/12/19 07:32:53;;;;;;;104.75;39.47;;;;;;;-9.80;65.39;100253.00;5090140;28;20024;-65
2022/12/19 07:35:20;;;;;;;102.57;37.30;;;;;;;-9.75;64.98;100252.63;5071609;28;20056;-65
2022/12/19 07:37:45;;;;;;;104.95;36.20;;;;;;;-9.74;65.04;100241.88;5088037;28;20024;-65
2022/12/19 07:40:12;;;;;;;105.38;34.75;;;;;;;-9.72;65.50;100239.94;5070941;28;20020;-65
2022/12/19 07:42:38;;;;;;;104.47;36.33;;;;;;;-9.70;65.52;100241.66;5086546;28;20081;-66
2022/12/19 07:45:03;;;;;;;104.82;36.17;;;;;;;-9.69;65.08;100246.84;5089585;28;20055;-65
2022/12/19 07:47:29;;;;;;;112.32;35.80;;;;;;;-9.69;65.38;100248.66;5084237;28;20032;-64
2022/12/19 07:49:54;;;;;;;110.95;36.83;;;;;;;-9.67;65.31;100244.06;5086726;28;20036;-65
2022/12/19 07:52:19;;;;;;;114.43;38.38;;;;;;;-9.63;65.32;100242.84;5081218;28;20506;-66
2022/12/19 07:54:45;;;;;;;109.50;38.47;;;;;;;-9.58;65.35;100246.00;5086445;28;20036;-68
2022/12/19 07:57:10;;;;;;;114.25;39.15;;;;;;;-9.53;65.79;100243.81;5091424;28;20031;-67
2022/12/19 07:59:35;;;;;;;114.22;38.75;;;;;;;-9.48;65.75;100248.75;5091039;28;20065;-66
2022/12/19 08:02:01;;;;;;;113.93;41.35;;;;;;;-9.44;65.84;100245.75;5091030;28;20076;-66
2022/12/19 08:04:26;;;;;;;127.45;43.97;;;;;;;-9.38;65.44;100252.38;5085888;28;20464;-66
2022/12/19 08:06:52;;;;;;;120.18;42.72;;;;;;;-9.30;65.87;100247.28;5072322;28;20048;-66
2022/12/19 08:09:17;;;;;;;119.80;40.67;;;;;;;-9.25;65.89;100233.63;5084527;28;20103;-67
2022/12/19 08:11:42;;;;;;;118.78;39.53;;;;;;;-9.19;66.11;100227.81;5090574;28;20418;-68
2022/12/19 08:14:08;;;;;;;110.60;37.22;;;;;;;-9.12;65.87;100226.34;5089894;28;20477;-67
2022/12/19 08:16:35;;;;;;;104.40;35.90;;;;;;;-9.05;65.71;100232.00;5088539;28;20032;-67
2022/12/19 08:19:01;;;;;;;109.55;36.15;;;;;;;-9.00;65.80;100226.34;5089479;28;20024;-66
2022/12/19 08:21:26;;;;;;;117.90;41.17;;;;;;;-8.94;65.80;100224.97;5088502;28;20396;-67
2022/12/19 08:23:52;;;;;;;101.85;36.72;;;;;;;-8.84;66.04;100225.91;5089424;28;20028;-68
2022/12/19 08:26:23;;;;;;;102.30;36.85;;;;;;;-8.74;66.32;100218.00;5089807;28;20031;-67
2022/12/19 08:28:53;;;;;;;108.38;37.33;;;;;;;-8.63;66.21;100209.13;5090035;28;20123;-67
2022/12/19 08:31:19;;;;;;;115.55;41.55;;;;;;;-8.53;66.52;100207.38;5070285;28;20028;-67
2022/12/19 08:33:46;;;;;;;118.45;40.80;;;;;;;-8.43;66.59;100212.72;5087474;28;20103;-67
2022/12/19 08:36:14;;;;;;;127.70;47.63;;;;;;;-8.34;66.27;100206.63;5089225;28;20028;-67
2022/12/19 08:38:40;;;;;;;157.23;54.38;;;;;;;-8.24;66.35;100206.69;5089491;28;20063;-67
2022/12/19 08:41:06;;;;;;;207.68;74.35;;;;;;;-8.16;66.57;100208.72;5086880;28;20474;-67
2022/12/19 08:43:31;;;;;;;231.40;83.20;;;;;;;-8.11;66.54;100211.78;5068496;28;20024;-67
2022/12/19 08:45:57;;;;;;;206.23;74.13;;;;;;;-8.05;66.49;100211.28;5089449;28;20024;-68
2022/12/19 08:48:22;;;;;;;203.20;72.88;;;;;;;-7.99;66.31;100213.41;5089020;28;20023;-66
2022/12/19 08:50:56;;;;;;;182.85;64.32;;;;;;;-7.93;66.73;100207.56;5088816;28;20476;-67
2022/12/19 08:53:23;;;;;;;171.32;59.75;;;;;;;-7.84;66.31;100205.09;5089953;28;20020;-66
2022/12/19 08:55:56;;;;;;;166.73;58.75;;;;;;;-7.79;66.64;100201.03;5090700;28;20427;-65
2022/12/19 08:58:23;;;;;;;156.98;56.53;;;;;;;-7.69;66.73;100190.41;5090139;28;20063;-67
2022/12/19 09:00:48;;;;;;;131.85;49.20;;;;;;;-7.64;66.40;100188.19;5088327;28;20027;-68
2022/12/19 09:03:13;;;;;;;157.93;56.85;;;;;;;-7.57;66.20;100199.16;5089949;28;20035;-67
2022/12/19 09:05:39;;;;;;;178.88;59.97;;;;;;;-7.53;66.62;100203.22;5087976;28;20114;-67
2022/12/19 09:08:05;;;;;;;155.38;58.88;;;;;;;-7.45;66.78;100210.53;5089360;28;20031;-67
2022/12/19 09:10:31;;;;;;;129.40;47.47;;;;;;;-7.38;66.48;100200.16;5088160;28;20027;-67
2022/12/19 09:12:57;;;;;;;123.93;45.70;;;;;;;-7.27;66.98;100193.88;5085259;28;20008;-68
2022/12/19 09:15:22;;;;;;;114.75;39.33;;;;;;;-7.17;66.84;100189.41;5089884;28;20036;-68
2022/12/19 09:17:48;;;;;;;112.55;37.83;;;;;;;-7.01;66.82;100188.03;5089203;28;20089;-66
2022/12/19 09:20:13;;;;;;;115.22;41.42;;;;;;;-6.89;67.05;100179.75;5087426;28;20028;-67
2022/12/19 09:22:39;;;;;;;114.68;39.88;;;;;;;-6.74;67.67;100180.16;5088009;28;20384;-65
2022/12/19 09:25:05;;;;;;;132.38;47.42;;;;;;;-6.60;67.58;100175.38;5088175;28;20029;-66
2022/12/19 09:27:30;;;;;;;140.68;50.83;;;;;;;-6.51;67.29;100177.19;5087818;28;20506;-66
2022/12/19 09:29:55;;;;;;;139.27;52.55;;;;;;;-6.43;67.67;100177.31;5087424;28;20032;-66
2022/12/19 09:32:21;;;;;;;141.40;50.38;;;;;;;-6.32;67.19;100172.81;5088068;28;20089;-65
2022/12/19 09:34:46;;;;;;;134.05;49.58;;;;;;;-6.23;67.46;100165.75;5087193;28;20032;-65
2022/12/19 09:37:12;;;;;;;112.78;41.80;;;;;;;-6.12;67.31;100168.25;5087813;28;20492;-65
2022/12/19 09:39:37;;;;;;;95.85;34.58;;;;;;;-6.01;67.91;100161.88;5086021;28;20036;-65
2022/12/19 09:42:24;;;;;;;88.65;31.40;;;;;;;-5.90;67.62;100160.81;5085683;28;20424;-66
2022/12/19 09:45:28;;;;;;;89.05;33.20;;;;;;;-5.78;67.84;100145.44;5088056;28;20016;-66
2022/12/19 09:47:56;;;;;;;93.57;37.25;;;;;;;-5.62;67.93;100147.47;5085113;28;20044;-65
2022/12/19 09:50:49;;;;;;;120.53;46.03;;;;;;;-5.58;67.81;100141.66;5087269;28;20036;-66
2022/12/19 09:53:22;;;;;;;129.73;46.22;;;;;;;-5.60;67.37;100142.81;5086445;28;20107;-65
2022/12/19 09:55:51;;;;;;;132.18;50.97;;;;;;;-5.64;67.00;100128.06;5087667;28;20096;-65
2022/12/19 09:58:48;;;;;;;127.38;52.15;;;;;;;-5.64;67.11;100138.75;5090717;28;20539;-65
2022/12/19 10:01:22;;;;;;;129.60;48.88;;;;;;;-5.61;67.28;100136.63;5091420;28;20020;-65
2022/12/19 10:03:59;;;;;;;116.70;44.15;;;;;;;-5.55;67.41;100128.00;5090676;28;20089;-65
2022/12/19 10:06:24;;;;;;;89.13;34.88;;;;;;;-5.46;67.25;100131.59;5092139;28;20024;-66
2022/12/19 10:08:51;;;;;;;85.03;33.85;;;;;;;-5.38;67.87;100137.03;5092230;28;20038;-65
2022/12/19 10:11:16;;;;;;;84.47;32.60;;;;;;;-5.27;68.09;100138.66;5091790;28;20024;-65
2022/12/19 10:13:54;;;;;;;79.50;29.08;;;;;;;-5.15;68.37;100128.59;5091357;28;20028;-65
2022/12/19 10:16:28;;;;;;;82.18;29.33;;;;;;;-5.01;68.13;100118.31;5092210;28;20035;-65
2022/12/19 10:18:59;;;;;;;79.40;30.98;;;;;;;-4.88;68.01;100107.22;5092034;28;20739;-66
2022/12/19 10:21:55;;;;;;;72.60;27.83;;;;;;;-4.72;68.27;100095.81;5092210;28;20434;-65
2022/12/19 10:25:08;;;;;;;70.00;28.52;;;;;;;-4.58;68.07;100089.06;5091183;28;20032;-65
2022/12/19 10:27:42;;;;;;;71.18;28.55;;;;;;;-4.43;68.64;100079.44;5009804;28;20065;-65
2022/12/19 10:30:13;;;;;;;77.28;29.85;;;;;;;-4.31;68.45;100076.47;5005414;28;20038;-65
2022/12/19 10:32:52;;;;;;;72.15;28.23;;;;;;;-4.20;68.43;100082.41;5055017;28;20464;-65
2022/12/19 10:35:19;;;;;;;69.68;26.10;;;;;;;-4.09;68.97;100070.59;5091726;28;20680;-65
2022/12/19 10:38:17;;;;;;;66.00;26.20;;;;;;;-3.95;69.37;100071.81;5084813;28;20020;-65
2022/12/19 10:41:07;;;;;;;60.83;24.70;;;;;;;-3.80;69.15;100072.03;5013331;28;20551;-65
2022/12/19 10:44:06;;;;;;;57.33;22.48;;;;;;;-3.67;69.33;100058.16;5089292;28;20040;-64
2022/12/19 10:46:37;;;;;;;51.22;22.75;;;;;;;-3.50;69.25;100063.56;5090034;28;20118;-65
2022/12/19 10:49:25;;;;;;;53.58;21.00;;;;;;;-3.40;69.32;100058.84;5088896;28;20105;-64
2022/12/19 10:51:58;;;;;;;53.33;22.45;;;;;;;-3.27;69.70;100054.84;5089072;28;20111;-64
2022/12/19 10:54:36;;;;;;;56.78;24.00;;;;;;;-3.15;69.54;100042.78;5089149;28;20043;-65
2022/12/19 10:57:24;;;;;;;55.65;23.88;;;;;;;-3.02;69.71;100031.53;5089509;28;20030;-65
2022/12/19 10:59:57;;;;;;;54.30;22.50;;;;;;;-2.91;69.62;100039.25;5089737;28;20032;-64
2022/12/19 11:02:33;;;;;;;56.80;23.58;;;;;;;-2.81;69.63;100041.75;5090348;28;20063;-65
2022/12/19 11:04:58;;;;;;;57.55;23.55;;;;;;;-2.70;69.88;100033.38;5090131;28;20028;-64
2022/12/19 11:07:24;;;;;;;57.33;25.33;;;;;;;-2.60;70.17;100029.63;5090695;28;20020;-64
2022/12/19 11:09:49;;;;;;;52.47;22.40;;;;;;;-2.50;70.06;100034.84;5090292;28;20028;-65
2022/12/19 11:12:17;;;;;;;58.95;24.77;;;;;;;-2.44;69.51;100026.06;5090634;28;20078;-65
2022/12/19 11:15:05;;;;;;;56.35;24.80;;;;;;;-2.37;69.95;100029.72;5090534;28;20032;-64
2022/12/19 11:17:31;;;;;;;55.63;24.38;;;;;;;-2.27;69.65;100026.88;5090333;28;20028;-65
2022/12/19 11:19:57;;;;;;;65.75;28.77;;;;;;;-2.21;69.72;100012.72;5089189;28;20036;-65
2022/12/19 11:22:29;;;;;;;58.25;25.65;;;;;;;-2.14;69.89;100021.75;5072017;28;20052;-65
2022/12/19 11:24:55;;;;;;;56.60;25.58;;;;;;;-2.06;69.82;100014.69;5089714;28;20032;-65